sensor_id;sensor_type;location;lat;lon;timestamp;temperature;humidity
14170;DHT22;63889;50.596;8.690;2023-03-01T00:00:23;2.50;99.90
14170;DHT22;63889;50.596;8.690;2023-03-01T00:02:49;2.50;99.90
14170;DHT22;63889;50.596;8.690;2023-03-01T00:05:15;2.40;99.90
14170;DHT22;63889;50.596;8.690;2023-03-01T00:07:40;2.40;99.90
14170;DHT22;63889;50.596;8.690;2023-03-01T00:10:06;2.30;99.90
14170;DHT22;63889;50.596;8.690;2023-03-01T00:12:31;2.40;99.90
14170;DHT22;63889;50.596;8.690;2023-03-01T00:14:57;2.40;99.90
14170;DHT22;63889;50.596;8.690;2023-03-01T00:17:22;2.40;99.90
14170;DHT22;63889;50.596;8.690;2023-03-01T00:19:48;2.40;99.90
14170;DHT22;63889;50.596;8.690;2023-03-01T00:22:13;2.40;99.90
14170;DHT22;63889;50.596;8.690;2023-03-01T00:24:39;2.40;99.90
14170;DHT22;63889;50.596;8.690;2023-03-01T00:27:04;2.40;99.90
14170;DHT22;63889;50.596;8.690;2023-03-01T00:29:30;2.40;99.90
14170;DHT22;63889;50.596;8.690;2023-03-01T00:31:56;2.40;99.90
14170;DHT22;63889;50.596;8.690;2023-03-01T00:34:21;2.30;99.90
14170;DHT22;63889;50.596;8.690;2023-03-01T00:36:47;2.30;99.90
14170;DHT22;63889;50.596;8.690;2023-03-01T00:39:14;2.30;99.90
14170;DHT22;63889;50.596;8.690;2023-03-01T00:41:40;2.30;99.90
14170;DHT22;63889;50.596;8.690;2023-03-01T00:44:05;2.30;99.90
14170;DHT22;63889;50.596;8.690;2023-03-01T00:46:31;2.30;99.90
14170;DHT22;63889;50.596;8.690;2023-03-01T00:48:57;2.30;99.90
14170;DHT22;63889;50.596;8.690;2023-03-01T00:51:25;2.20;99.90
14170;DHT22;63889;50.596;8.690;2023-03-01T00:53:53;2.30;99.90
14170;DHT22;63889;50.596;8.690;2023-03-01T00:56:19;2.30;99.90
14170;DHT22;63889;50.596;8.690;2023-03-01T00:58:44;2.30;99.90
14170;DHT22;63889;50.596;8.690;2023-03-01T01:01:14;2.30;99.90
14170;DHT22;63889;50.596;8.690;2023-03-01T01:03:46;2.30;99.90
14170;DHT22;63889;50.596;8.690;2023-03-01T01:06:21;2.30;99.90
14170;DHT22;63889;50.596;8.690;2023-03-01T01:08:48;2.30;99.90
14170;DHT22;63889;50.596;8.690;2023-03-01T01:11:14;2.30;99.90
14170;DHT22;63889;50.596;8.690;2023-03-01T01:13:40;2.30;99.90
14170;DHT22;63889;50.596;8.690;2023-03-01T01:16:06;2.30;99.90
14170;DHT22;63889;50.596;8.690;2023-03-01T01:18:32;2.30;99.90
14170;DHT22;63889;50.596;8.690;2023-03-01T01:20:57;2.30;99.90
14170;DHT22;63889;50.596;8.690;2023-03-01T01:23:23;2.20;99.90
14170;DHT22;63889;50.596;8.690;2023-03-01T01:25:48;2.20;99.90
14170;DHT22;63889;50.596;8.690;2023-03-01T01:28:14;2.30;99.90
14170;DHT22;63889;50.596;8.690;2023-03-01T01:30:39;2.10;99.90
14170;DHT22;63889;50.596;8.690;2023-03-01T01:33:05;2.00;99.90
14170;DHT22;63889;50.596;8.690;2023-03-01T01:35:30;2.10;99.90
14170;DHT22;63889;50.596;8.690;2023-03-01T01:37:56;2.10;99.90
14170;DHT22;63889;50.596;8.690;2023-03-01T01:40:21;2.10;99.90
14170;DHT22;63889;50.596;8.690;2023-03-01T01:42:47;2.10;99.90
14170;DHT22;63889;50.596;8.690;2023-03-01T01:47:57;2.10;99.90
14170;DHT22;63889;50.596;8.690;2023-03-01T01:50:24;2.00;99.90
14170;DHT22;63889;50.596;8.690;2023-03-01T01:52:50;2.00;99.90
14170;DHT22;63889;50.596;8.690;2023-03-01T01:55:21;2.00;99.90
14170;DHT22;63889;50.596;8.690;2023-03-01T01:58:00;2.00;99.90
14170;DHT22;63889;50.596;8.690;2023-03-01T02:00:29;1.90;99.90
14170;DHT22;63889;50.596;8.690;2023-03-01T02:02:59;2.00;99.90
14170;DHT22;63889;50.596;8.690;2023-03-01T02:07:58;1.90;99.90
14170;DHT22;63889;50.596;8.690;2023-03-01T02:10:24;1.90;99.90
14170;DHT22;63889;50.596;8.690;2023-03-01T02:12:51;1.90;99.90
14170;DHT22;63889;50.596;8.690;2023-03-01T02:15:17;1.90;99.90
14170;DHT22;63889;50.596;8.690;2023-03-01T02:17:42;1.80;99.90
14170;DHT22;63889;50.596;8.690;2023-03-01T02:23:04;1.60;99.90
14170;DHT22;63889;50.596;8.690;2023-03-01T02:25:57;1.70;99.90
14170;DHT22;63889;50.596;8.690;2023-03-01T02:28:28;1.80;99.90
14170;DHT22;63889;50.596;8.690;2023-03-01T02:30:54;1.90;99.90
14170;DHT22;63889;50.596;8.690;2023-03-01T02:33:39;1.90;99.90
14170;DHT22;63889;50.596;8.690;2023-03-01T02:36:26;1.80;99.90
14170;DHT22;63889;50.596;8.690;2023-03-01T02:38:57;1.80;99.90
14170;DHT22;63889;50.596;8.690;2023-03-01T02:41:24;1.90;99.90
14170;DHT22;63889;50.596;8.690;2023-03-01T02:43:51;1.80;99.90
14170;DHT22;63889;50.596;8.690;2023-03-01T02:46:22;1.80;99.90
14170;DHT22;63889;50.596;8.690;2023-03-01T02:48:54;1.50;99.90
14170;DHT22;63889;50.596;8.690;2023-03-01T02:53:53;1.50;99.90
14170;DHT22;63889;50.596;8.690;2023-03-01T02:56:20;1.50;99.90
14170;DHT22;63889;50.596;8.690;2023-03-01T02:58:46;1.50;99.90
14170;DHT22;63889;50.596;8.690;2023-03-01T03:01:16;1.60;99.90
14170;DHT22;63889;50.596;8.690;2023-03-01T03:03:42;1.40;99.90
14170;DHT22;63889;50.596;8.690;2023-03-01T03:06:08;1.50;99.90
14170;DHT22;63889;50.596;8.690;2023-03-01T03:08:34;1.60;99.90
14170;DHT22;63889;50.596;8.690;2023-03-01T03:11:00;1.50;99.90
14170;DHT22;63889;50.596;8.690;2023-03-01T03:13:25;1.70;99.90
14170;DHT22;63889;50.596;8.690;2023-03-01T03:15:55;1.70;99.90
14170;DHT22;63889;50.596;8.690;2023-03-01T03:18:21;1.80;99.90
14170;DHT22;63889;50.596;8.690;2023-03-01T03:20:47;1.80;99.90
14170;DHT22;63889;50.596;8.690;2023-03-01T03:23:13;1.80;99.90
14170;DHT22;63889;50.596;8.690;2023-03-01T03:25:39;1.70;99.90
14170;DHT22;63889;50.596;8.690;2023-03-01T03:28:05;1.70;99.90
14170;DHT22;63889;50.596;8.690;2023-03-01T03:30:36;1.60;99.90
14170;DHT22;63889;50.596;8.690;2023-03-01T03:33:04;1.50;99.90
14170;DHT22;63889;50.596;8.690;2023-03-01T03:35:33;1.50;99.90
14170;DHT22;63889;50.596;8.690;2023-03-01T03:38:00;1.30;99.90
14170;DHT22;63889;50.596;8.690;2023-03-01T03:40:34;1.20;99.90
14170;DHT22;63889;50.596;8.690;2023-03-01T03:43:01;1.20;99.90
14170;DHT22;63889;50.596;8.690;2023-03-01T03:45:27;1.10;99.90
14170;DHT22;63889;50.596;8.690;2023-03-01T03:47:52;1.20;99.90
14170;DHT22;63889;50.596;8.690;2023-03-01T03:50:18;1.30;99.90
14170;DHT22;63889;50.596;8.690;2023-03-01T03:52:44;1.40;99.90
14170;DHT22;63889;50.596;8.690;2023-03-01T03:55:12;1.40;99.90
14170;DHT22;63889;50.596;8.690;2023-03-01T03:57:39;1.50;99.90
14170;DHT22;63889;50.596;8.690;2023-03-01T04:00:10;1.40;99.90
14170;DHT22;63889;50.596;8.690;2023-03-01T04:02:43;1.30;99.90
14170;DHT22;63889;50.596;8.690;2023-03-01T04:05:11;1.40;99.90
14170;DHT22;63889;50.596;8.690;2023-03-01T04:07:38;1.40;99.90
14170;DHT22;63889;50.596;8.690;2023-03-01T04:10:05;1.30;99.90
14170;DHT22;63889;50.596;8.690;2023-03-01T04:12:32;1.30;99.90
14170;DHT22;63889;50.596;8.690;2023-03-01T04:14:59;1.20;99.90
14170;DHT22;63889;50.596;8.690;2023-03-01T04:17:25;1.30;99.90
14170;DHT22;63889;50.596;8.690;2023-03-01T04:19:50;1.30;99.90
14170;DHT22;63889;50.596;8.690;2023-03-01T04:22:16;1.40;99.90
14170;DHT22;63889;50.596;8.690;2023-03-01T04:24:44;1.50;99.90
14170;DHT22;63889;50.596;8.690;2023-03-01T04:27:10;1.50;99.90
14170;DHT22;63889;50.596;8.690;2023-03-01T04:29:35;1.50;99.90
14170;DHT22;63889;50.596;8.690;2023-03-01T04:32:01;1.50;99.90
14170;DHT22;63889;50.596;8.690;2023-03-01T04:34:28;1.50;99.90
14170;DHT22;63889;50.596;8.690;2023-03-01T04:36:54;1.50;99.90
14170;DHT22;63889;50.596;8.690;2023-03-01T04:39:19;1.50;99.90
14170;DHT22;63889;50.596;8.690;2023-03-01T04:41:45;1.50;99.90
14170;DHT22;63889;50.596;8.690;2023-03-01T04:44:11;1.50;99.90
14170;DHT22;63889;50.596;8.690;2023-03-01T04:46:36;1.50;99.90
14170;DHT22;63889;50.596;8.690;2023-03-01T04:49:02;1.50;99.90
14170;DHT22;63889;50.596;8.690;2023-03-01T04:51:28;1.40;99.90
14170;DHT22;63889;50.596;8.690;2023-03-01T04:53:54;1.40;99.90
14170;DHT22;63889;50.596;8.690;2023-03-01T04:56:20;1.30;99.90
14170;DHT22;63889;50.596;8.690;2023-03-01T04:58:48;1.20;99.90
14170;DHT22;63889;50.596;8.690;2023-03-01T05:01:17;1.20;99.90
14170;DHT22;63889;50.596;8.690;2023-03-01T05:03:44;1.20;99.90
14170;DHT22;63889;50.596;8.690;2023-03-01T05:06:11;1.30;99.90
14170;DHT22;63889;50.596;8.690;2023-03-01T05:08:38;1.40;99.90
14170;DHT22;63889;50.596;8.690;2023-03-01T05:11:04;1.40;99.90
14170;DHT22;63889;50.596;8.690;2023-03-01T05:13:31;1.40;99.90
14170;DHT22;63889;50.596;8.690;2023-03-01T05:15:59;1.30;99.90
14170;DHT22;63889;50.596;8.690;2023-03-01T05:18:26;1.20;99.90
14170;DHT22;63889;50.596;8.690;2023-03-01T05:20:55;1.20;99.90
14170;DHT22;63889;50.596;8.690;2023-03-01T05:23:26;1.20;99.90
14170;DHT22;63889;50.596;8.690;2023-03-01T05:25:52;1.30;99.90
14170;DHT22;63889;50.596;8.690;2023-03-01T05:28:19;1.20;99.90
14170;DHT22;63889;50.596;8.690;2023-03-01T05:30:45;1.30;99.90
14170;DHT22;63889;50.596;8.690;2023-03-01T05:33:11;1.20;99.90
14170;DHT22;63889;50.596;8.690;2023-03-01T05:35:43;1.20;99.90
14170;DHT22;63889;50.596;8.690;2023-03-01T05:38:10;1.10;99.90
14170;DHT22;63889;50.596;8.690;2023-03-01T05:40:43;1.20;99.90
14170;DHT22;63889;50.596;8.690;2023-03-01T05:43:09;1.10;99.90
14170;DHT22;63889;50.596;8.690;2023-03-01T05:45:37;1.00;99.90
14170;DHT22;63889;50.596;8.690;2023-03-01T05:48:04;1.00;99.90
14170;DHT22;63889;50.596;8.690;2023-03-01T05:50:33;0.90;99.90
14170;DHT22;63889;50.596;8.690;2023-03-01T05:53:00;0.90;99.90
14170;DHT22;63889;50.596;8.690;2023-03-01T05:55:26;1.00;99.90
14170;DHT22;63889;50.596;8.690;2023-03-01T05:57:52;1.00;99.90
14170;DHT22;63889;50.596;8.690;2023-03-01T06:00:20;1.00;99.90
14170;DHT22;63889;50.596;8.690;2023-03-01T06:02:48;1.00;99.90
14170;DHT22;63889;50.596;8.690;2023-03-01T06:05:14;1.00;99.90
14170;DHT22;63889;50.596;8.690;2023-03-01T06:07:40;1.00;99.90
14170;DHT22;63889;50.596;8.690;2023-03-01T06:10:07;1.10;99.90
14170;DHT22;63889;50.596;8.690;2023-03-01T06:12:34;1.10;99.90
14170;DHT22;63889;50.596;8.690;2023-03-01T06:15:00;1.10;99.90
14170;DHT22;63889;50.596;8.690;2023-03-01T06:17:28;1.00;99.90
14170;DHT22;63889;50.596;8.690;2023-03-01T06:19:54;1.10;99.90
14170;DHT22;63889;50.596;8.690;2023-03-01T06:22:19;1.10;99.90
14170;DHT22;63889;50.596;8.690;2023-03-01T06:24:45;1.10;99.90
14170;DHT22;63889;50.596;8.690;2023-03-01T06:27:10;1.00;99.90
14170;DHT22;63889;50.596;8.690;2023-03-01T06:29:36;1.00;99.90
14170;DHT22;63889;50.596;8.690;2023-03-01T06:32:02;1.00;99.90
14170;DHT22;63889;50.596;8.690;2023-03-01T06:34:28;1.00;99.90
14170;DHT22;63889;50.596;8.690;2023-03-01T06:36:54;1.20;99.90
14170;DHT22;63889;50.596;8.690;2023-03-01T06:39:19;1.30;99.90
14170;DHT22;63889;50.596;8.690;2023-03-01T06:41:45;1.10;99.90
14170;DHT22;63889;50.596;8.690;2023-03-01T06:44:10;1.10;99.90
14170;DHT22;63889;50.596;8.690;2023-03-01T06:46:36;1.10;99.90
14170;DHT22;63889;50.596;8.690;2023-03-01T06:49:01;1.00;99.90
14170;DHT22;63889;50.596;8.690;2023-03-01T06:51:29;1.20;99.90
14170;DHT22;63889;50.596;8.690;2023-03-01T06:53:55;1.10;99.90
14170;DHT22;63889;50.596;8.690;2023-03-01T06:56:20;1.20;99.90
14170;DHT22;63889;50.596;8.690;2023-03-01T06:58:46;1.30;99.90
14170;DHT22;63889;50.596;8.690;2023-03-01T07:01:11;1.30;99.90
14170;DHT22;63889;50.596;8.690;2023-03-01T07:03:37;1.40;99.90
14170;DHT22;63889;50.596;8.690;2023-03-01T07:06:03;1.40;99.90
14170;DHT22;63889;50.596;8.690;2023-03-01T07:08:28;1.50;99.90
14170;DHT22;63889;50.596;8.690;2023-03-01T07:10:58;1.50;99.90
14170;DHT22;63889;50.596;8.690;2023-03-01T07:13:23;1.50;99.90
14170;DHT22;63889;50.596;8.690;2023-03-01T07:15:49;1.50;99.90
14170;DHT22;63889;50.596;8.690;2023-03-01T07:18:15;1.60;99.90
14170;DHT22;63889;50.596;8.690;2023-03-01T07:20:40;1.60;99.90
14170;DHT22;63889;50.596;8.690;2023-03-01T07:23:06;1.70;99.90
14170;DHT22;63889;50.596;8.690;2023-03-01T07:25:32;1.60;99.90
14170;DHT22;63889;50.596;8.690;2023-03-01T07:27:57;1.70;99.90
14170;DHT22;63889;50.596;8.690;2023-03-01T07:30:24;1.70;99.90
14170;DHT22;63889;50.596;8.690;2023-03-01T07:32:51;1.60;99.90
14170;DHT22;63889;50.596;8.690;2023-03-01T07:35:17;1.70;99.90
14170;DHT22;63889;50.596;8.690;2023-03-01T07:37:43;1.80;99.90
14170;DHT22;63889;50.596;8.690;2023-03-01T07:40:09;1.90;99.90
14170;DHT22;63889;50.596;8.690;2023-03-01T07:42:35;1.90;99.90
14170;DHT22;63889;50.596;8.690;2023-03-01T07:45:02;1.90;99.90
14170;DHT22;63889;50.596;8.690;2023-03-01T07:47:27;2.00;99.90
14170;DHT22;63889;50.596;8.690;2023-03-01T07:49:53;2.00;99.90
14170;DHT22;63889;50.596;8.690;2023-03-01T07:52:18;2.10;99.90
14170;DHT22;63889;50.596;8.690;2023-03-01T07:54:44;2.10;99.90
14170;DHT22;63889;50.596;8.690;2023-03-01T07:57:10;2.20;99.90
14170;DHT22;63889;50.596;8.690;2023-03-01T07:59:35;2.20;99.90
14170;DHT22;63889;50.596;8.690;2023-03-01T08:02:01;2.30;99.90
14170;DHT22;63889;50.596;8.690;2023-03-01T08:04:27;2.30;99.90
14170;DHT22;63889;50.596;8.690;2023-03-01T08:06:53;2.40;99.90
14170;DHT22;63889;50.596;8.690;2023-03-01T08:09:19;2.50;99.90
14170;DHT22;63889;50.596;8.690;2023-03-01T08:11:44;2.40;99.90
14170;DHT22;63889;50.596;8.690;2023-03-01T08:14:10;2.50;99.90
14170;DHT22;63889;50.596;8.690;2023-03-01T08:16:36;2.60;99.90
14170;DHT22;63889;50.596;8.690;2023-03-01T08:19:06;2.70;99.90
14170;DHT22;63889;50.596;8.690;2023-03-01T08:21:32;2.70;99.90
14170;DHT22;63889;50.596;8.690;2023-03-01T08:24:00;2.70;99.90
14170;DHT22;63889;50.596;8.690;2023-03-01T08:26:26;2.80;99.90
14170;DHT22;63889;50.596;8.690;2023-03-01T08:28:51;2.90;99.90
14170;DHT22;63889;50.596;8.690;2023-03-01T08:31:27;2.90;99.90
14170;DHT22;63889;50.596;8.690;2023-03-01T08:33:55;3.00;99.90
14170;DHT22;63889;50.596;8.690;2023-03-01T08:36:23;3.20;99.90
14170;DHT22;63889;50.596;8.690;2023-03-01T08:38:50;3.10;99.90
14170;DHT22;63889;50.596;8.690;2023-03-01T08:41:15;3.30;99.90
14170;DHT22;63889;50.596;8.690;2023-03-01T08:43:41;3.30;99.90
14170;DHT22;63889;50.596;8.690;2023-03-01T08:46:07;3.30;99.90
14170;DHT22;63889;50.596;8.690;2023-03-01T08:48:32;3.40;99.90
14170;DHT22;63889;50.596;8.690;2023-03-01T08:51:10;3.30;99.90
14170;DHT22;63889;50.596;8.690;2023-03-01T08:53:36;3.40;99.90
14170;DHT22;63889;50.596;8.690;2023-03-01T08:56:02;3.40;99.90
14170;DHT22;63889;50.596;8.690;2023-03-01T08:58:29;3.40;99.90
14170;DHT22;63889;50.596;8.690;2023-03-01T09:00:54;3.40;99.90
14170;DHT22;63889;50.596;8.690;2023-03-01T09:03:22;3.50;99.90
14170;DHT22;63889;50.596;8.690;2023-03-01T09:05:47;3.50;99.90
14170;DHT22;63889;50.596;8.690;2023-03-01T09:08:16;3.70;99.90
14170;DHT22;63889;50.596;8.690;2023-03-01T09:10:41;3.80;99.90
14170;DHT22;63889;50.596;8.690;2023-03-01T09:13:07;3.90;99.90
14170;DHT22;63889;50.596;8.690;2023-03-01T09:15:32;4.00;99.90
14170;DHT22;63889;50.596;8.690;2023-03-01T09:17:59;4.20;99.90
14170;DHT22;63889;50.596;8.690;2023-03-01T09:20:24;4.30;99.90
14170;DHT22;63889;50.596;8.690;2023-03-01T09:22:50;4.50;99.90
14170;DHT22;63889;50.596;8.690;2023-03-01T09:25:15;4.50;99.90
14170;DHT22;63889;50.596;8.690;2023-03-01T09:27:41;4.50;99.90
14170;DHT22;63889;50.596;8.690;2023-03-01T09:30:07;4.60;99.90
14170;DHT22;63889;50.596;8.690;2023-03-01T09:32:33;4.60;99.90
14170;DHT22;63889;50.596;8.690;2023-03-01T09:34:59;4.70;99.90
14170;DHT22;63889;50.596;8.690;2023-03-01T09:37:30;4.70;99.90
14170;DHT22;63889;50.596;8.690;2023-03-01T09:39:57;4.60;99.90
14170;DHT22;63889;50.596;8.690;2023-03-01T09:42:22;4.60;99.90
14170;DHT22;63889;50.596;8.690;2023-03-01T09:44:53;4.70;99.90
14170;DHT22;63889;50.596;8.690;2023-03-01T09:47:29;4.80;99.90
14170;DHT22;63889;50.596;8.690;2023-03-01T09:54:59;5.00;99.90
14170;DHT22;63889;50.596;8.690;2023-03-01T09:57:30;5.10;99.90
14170;DHT22;63889;50.596;8.690;2023-03-01T10:00:15;5.20;99.90
14170;DHT22;63889;50.596;8.690;2023-03-01T10:02:57;5.30;99.90
14170;DHT22;63889;50.596;8.690;2023-03-01T10:08:19;5.50;99.90
14170;DHT22;63889;50.596;8.690;2023-03-01T10:10:49;5.70;99.90
14170;DHT22;63889;50.596;8.690;2023-03-01T10:13:22;5.80;99.90
14170;DHT22;63889;50.596;8.690;2023-03-01T10:16:11;5.90;99.90
14170;DHT22;63889;50.596;8.690;2023-03-01T10:18:39;5.90;99.90
14170;DHT22;63889;50.596;8.690;2023-03-01T10:21:15;5.90;99.90
14170;DHT22;63889;50.596;8.690;2023-03-01T10:23:42;6.20;99.90
14170;DHT22;63889;50.596;8.690;2023-03-01T10:31:14;6.40;99.90
14170;DHT22;63889;50.596;8.690;2023-03-01T10:33:41;6.60;99.90
14170;DHT22;63889;50.596;8.690;2023-03-01T10:36:08;6.80;99.90
14170;DHT22;63889;50.596;8.690;2023-03-01T10:38:54;6.90;99.90
14170;DHT22;63889;50.596;8.690;2023-03-01T10:41:22;7.00;99.90
14170;DHT22;63889;50.596;8.690;2023-03-01T10:43:56;7.10;99.90
14170;DHT22;63889;50.596;8.690;2023-03-01T10:46:34;7.20;99.90
14170;DHT22;63889;50.596;8.690;2023-03-01T10:51:47;7.40;99.90
14170;DHT22;63889;50.596;8.690;2023-03-01T10:54:17;7.50;99.90
14170;DHT22;63889;50.596;8.690;2023-03-01T10:56:51;7.80;99.90
14170;DHT22;63889;50.596;8.690;2023-03-01T10:59:27;7.90;99.90
14170;DHT22;63889;50.596;8.690;2023-03-01T11:02:17;7.90;99.90
14170;DHT22;63889;50.596;8.690;2023-03-01T11:07:27;8.00;99.90
14170;DHT22;63889;50.596;8.690;2023-03-01T11:09:54;8.10;99.90
14170;DHT22;63889;50.596;8.690;2023-03-01T11:12:20;8.30;99.90
14170;DHT22;63889;50.596;8.690;2023-03-01T11:14:57;8.40;99.90
14170;DHT22;63889;50.596;8.690;2023-03-01T11:17:30;8.50;99.90
14170;DHT22;63889;50.596;8.690;2023-03-01T11:22:47;8.70;99.90
14170;DHT22;63889;50.596;8.690;2023-03-01T11:25:15;8.80;99.90
14170;DHT22;63889;50.596;8.690;2023-03-01T11:27:55;9.00;99.90
14170;DHT22;63889;50.596;8.690;2023-03-01T11:33:17;9.10;99.90
14170;DHT22;63889;50.596;8.690;2023-03-01T11:35:55;9.10;99.90
14170;DHT22;63889;50.596;8.690;2023-03-01T11:38:25;9.30;99.90
14170;DHT22;63889;50.596;8.690;2023-03-01T11:41:20;9.30;99.90
14170;DHT22;63889;50.596;8.690;2023-03-01T11:44:00;9.40;99.90
14170;DHT22;63889;50.596;8.690;2023-03-01T11:47:34;9.50;99.90
14170;DHT22;63889;50.596;8.690;2023-03-01T11:50:04;9.80;99.90
14170;DHT22;63889;50.596;8.690;2023-03-01T11:52:58;9.80;99.90
14170;DHT22;63889;50.596;8.690;2023-03-01T11:58:41;9.50;99.90
14170;DHT22;63889;50.596;8.690;2023-03-01T12:01:12;9.30;99.50
14170;DHT22;63889;50.596;8.690;2023-03-01T12:22:54;10.20;99.00
14170;DHT22;63889;50.596;8.690;2023-03-01T12:25:41;10.20;98.40
14170;DHT22;63889;50.596;8.690;2023-03-01T12:28:24;10.50;98.90
14170;DHT22;63889;50.596;8.690;2023-03-01T12:45:07;10.80;96.00
14170;DHT22;63889;50.596;8.690;2023-03-01T12:47:58;10.70;95.20
14170;DHT22;63889;50.596;8.690;2023-03-01T12:50:37;11.00;95.70
14170;DHT22;63889;50.596;8.690;2023-03-01T12:53:04;11.00;94.90
14170;DHT22;63889;50.596;8.690;2023-03-01T12:55:34;11.30;95.10
14170;DHT22;63889;50.596;8.690;2023-03-01T12:58:13;11.50;94.00
14170;DHT22;63889;50.596;8.690;2023-03-01T13:11:29;11.40;92.00
14170;DHT22;63889;50.596;8.690;2023-03-01T13:16:45;11.60;92.50
14170;DHT22;63889;50.596;8.690;2023-03-01T13:19:22;11.80;92.30
14170;DHT22;63889;50.596;8.690;2023-03-01T13:21:51;12.00;91.30
14170;DHT22;63889;50.596;8.690;2023-03-01T13:24:40;11.90;91.00
14170;DHT22;63889;50.596;8.690;2023-03-01T13:29:55;12.40;91.50
14170;DHT22;63889;50.596;8.690;2023-03-01T13:32:28;12.50;90.60
14170;DHT22;63889;50.596;8.690;2023-03-01T13:35:01;12.30;91.30
14170;DHT22;63889;50.596;8.690;2023-03-01T13:37:34;12.40;90.60
14170;DHT22;63889;50.596;8.690;2023-03-01T13:40:03;12.30;88.30
14170;DHT22;63889;50.596;8.690;2023-03-01T13:42:41;12.00;88.70
14170;DHT22;63889;50.596;8.690;2023-03-01T13:48:02;11.80;89.90
14170;DHT22;63889;50.596;8.690;2023-03-01T13:50:38;11.60;89.10
14170;DHT22;63889;50.596;8.690;2023-03-01T13:53:06;12.00;90.50
14170;DHT22;63889;50.596;8.690;2023-03-01T13:55:42;11.80;85.70
14170;DHT22;63889;50.596;8.690;2023-03-01T13:58:33;12.00;86.80
14170;DHT22;63889;50.596;8.690;2023-03-01T14:01:07;12.10;85.80
14170;DHT22;63889;50.596;8.690;2023-03-01T14:03:41;12.20;88.10
14170;DHT22;63889;50.596;8.690;2023-03-01T14:06:15;12.40;84.70
14170;DHT22;63889;50.596;8.690;2023-03-01T14:08:44;12.50;86.50
14170;DHT22;63889;50.596;8.690;2023-03-01T14:14:17;11.90;81.00
14170;DHT22;63889;50.596;8.690;2023-03-01T14:19:31;11.60;83.90
14170;DHT22;63889;50.596;8.690;2023-03-01T14:22:02;12.00;84.20
14170;DHT22;63889;50.596;8.690;2023-03-01T14:24:31;12.20;81.50
14170;DHT22;63889;50.596;8.690;2023-03-01T14:27:00;12.20;80.10
14170;DHT22;63889;50.596;8.690;2023-03-01T14:29:34;11.80;81.20
14170;DHT22;63889;50.596;8.690;2023-03-01T14:32:22;11.60;81.80
14170;DHT22;63889;50.596;8.690;2023-03-01T14:34:50;11.20;79.80
14170;DHT22;63889;50.596;8.690;2023-03-01T14:37:22;11.10;81.70
14170;DHT22;63889;50.596;8.690;2023-03-01T14:39:49;11.60;80.90
14170;DHT22;63889;50.596;8.690;2023-03-01T14:42:15;11.80;81.00
14170;DHT22;63889;50.596;8.690;2023-03-01T14:44:46;12.00;80.20
14170;DHT22;63889;50.596;8.690;2023-03-01T14:47:16;12.10;78.20
14170;DHT22;63889;50.596;8.690;2023-03-01T14:49:45;11.90;78.00
14170;DHT22;63889;50.596;8.690;2023-03-01T14:52:36;11.90;78.10
14170;DHT22;63889;50.596;8.690;2023-03-01T14:55:05;12.10;76.80
14170;DHT22;63889;50.596;8.690;2023-03-01T14:57:31;11.50;75.10
14170;DHT22;63889;50.596;8.690;2023-03-01T14:59:59;11.40;76.70
14170;DHT22;63889;50.596;8.690;2023-03-01T15:02:28;11.40;77.40
14170;DHT22;63889;50.596;8.690;2023-03-01T15:04:58;11.70;76.60
14170;DHT22;63889;50.596;8.690;2023-03-01T15:07:29;11.70;75.80
14170;DHT22;63889;50.596;8.690;2023-03-01T15:09:57;11.30;72.90
14170;DHT22;63889;50.596;8.690;2023-03-01T15:14:58;11.00;74.40
14170;DHT22;63889;50.596;8.690;2023-03-01T15:17:33;10.80;73.30
14170;DHT22;63889;50.596;8.690;2023-03-01T15:20:01;10.40;74.10
14170;DHT22;63889;50.596;8.690;2023-03-01T15:22:27;10.30;75.60
14170;DHT22;63889;50.596;8.690;2023-03-01T15:24:54;9.80;76.60
14170;DHT22;63889;50.596;8.690;2023-03-01T15:27:22;9.70;76.80
14170;DHT22;63889;50.596;8.690;2023-03-01T15:29:52;9.70;76.50
14170;DHT22;63889;50.596;8.690;2023-03-01T15:32:35;9.50;75.90
14170;DHT22;63889;50.596;8.690;2023-03-01T15:40:56;9.20;78.00
14170;DHT22;63889;50.596;8.690;2023-03-01T15:43:43;9.10;77.70
14170;DHT22;63889;50.596;8.690;2023-03-01T15:46:33;8.80;77.80
14170;DHT22;63889;50.596;8.690;2023-03-01T15:49:05;8.90;78.20
14170;DHT22;63889;50.596;8.690;2023-03-01T15:51:42;9.10;78.10
14170;DHT22;63889;50.596;8.690;2023-03-01T15:54:19;9.40;79.00
14170;DHT22;63889;50.596;8.690;2023-03-01T15:56:51;9.40;77.50
14170;DHT22;63889;50.596;8.690;2023-03-01T15:59:17;9.20;77.00
14170;DHT22;63889;50.596;8.690;2023-03-01T16:01:43;9.00;79.40
14170;DHT22;63889;50.596;8.690;2023-03-01T16:04:11;9.00;77.50
14170;DHT22;63889;50.596;8.690;2023-03-01T16:06:41;8.90;78.10
14170;DHT22;63889;50.596;8.690;2023-03-01T16:09:07;8.90;78.90
14170;DHT22;63889;50.596;8.690;2023-03-01T16:11:32;8.90;78.70
14170;DHT22;63889;50.596;8.690;2023-03-01T16:13:59;8.70;78.40
14170;DHT22;63889;50.596;8.690;2023-03-01T16:16:24;8.50;78.70
14170;DHT22;63889;50.596;8.690;2023-03-01T16:18:50;8.80;79.90
14170;DHT22;63889;50.596;8.690;2023-03-01T16:21:24;8.80;78.40
14170;DHT22;63889;50.596;8.690;2023-03-01T16:23:51;8.60;78.50
14170;DHT22;63889;50.596;8.690;2023-03-01T16:26:16;8.50;77.70
14170;DHT22;63889;50.596;8.690;2023-03-01T16:28:44;8.30;78.50
14170;DHT22;63889;50.596;8.690;2023-03-01T16:31:10;8.30;77.90
14170;DHT22;63889;50.596;8.690;2023-03-01T16:33:36;8.40;77.50
14170;DHT22;63889;50.596;8.690;2023-03-01T16:36:10;8.20;78.40
14170;DHT22;63889;50.596;8.690;2023-03-01T16:38:36;8.10;78.60
14170;DHT22;63889;50.596;8.690;2023-03-01T16:41:02;8.00;78.70
14170;DHT22;63889;50.596;8.690;2023-03-01T16:43:29;8.10;78.30
14170;DHT22;63889;50.596;8.690;2023-03-01T16:45:54;8.20;78.90
14170;DHT22;63889;50.596;8.690;2023-03-01T16:48:20;8.30;78.80
14170;DHT22;63889;50.596;8.690;2023-03-01T16:50:49;8.20;78.40
14170;DHT22;63889;50.596;8.690;2023-03-01T16:53:20;8.10;77.80
14170;DHT22;63889;50.596;8.690;2023-03-01T16:55:53;8.00;78.80
14170;DHT22;63889;50.596;8.690;2023-03-01T16:58:18;8.00;78.70
14170;DHT22;63889;50.596;8.690;2023-03-01T17:00:44;8.10;78.60
14170;DHT22;63889;50.596;8.690;2023-03-01T17:03:09;8.00;78.70
14170;DHT22;63889;50.596;8.690;2023-03-01T17:05:35;8.00;79.00
14170;DHT22;63889;50.596;8.690;2023-03-01T17:08:00;8.00;78.20
14170;DHT22;63889;50.596;8.690;2023-03-01T17:10:26;8.00;79.30
14170;DHT22;63889;50.596;8.690;2023-03-01T17:12:51;7.90;78.80
14170;DHT22;63889;50.596;8.690;2023-03-01T17:15:17;7.90;78.40
14170;DHT22;63889;50.596;8.690;2023-03-01T17:17:42;7.80;78.00
14170;DHT22;63889;50.596;8.690;2023-03-01T17:20:09;7.90;78.50
14170;DHT22;63889;50.596;8.690;2023-03-01T17:22:35;8.00;78.90
14170;DHT22;63889;50.596;8.690;2023-03-01T17:25:00;8.00;78.60
14170;DHT22;63889;50.596;8.690;2023-03-01T17:27:26;7.90;77.50
14170;DHT22;63889;50.596;8.690;2023-03-01T17:29:52;7.60;78.00
14170;DHT22;63889;50.596;8.690;2023-03-01T17:32:17;7.60;77.80
14170;DHT22;63889;50.596;8.690;2023-03-01T17:34:43;7.40;78.00
14170;DHT22;63889;50.596;8.690;2023-03-01T17:37:10;7.30;78.60
14170;DHT22;63889;50.596;8.690;2023-03-01T17:39:36;7.40;79.70